sensor_id;sensor_type;location;lat;lon;timestamp;P1;durP1;ratioP1;P2;durP2;ratioP2
12048;SDS011;6085;49.452;8.502;2022-08-20T00:00:54;3.03;;;2.78;;
12048;SDS011;6085;49.452;8.502;2022-08-20T00:04:56;5.20;;;4.75;;
12048;SDS011;6085;49.452;8.502;2022-08-20T00:08:58;4.10;;;3.70;;
12048;SDS011;6085;49.452;8.502;2022-08-20T00:13:02;3.60;;;3.30;;
12048;SDS011;6085;49.452;8.502;2022-08-20T00:17:06;4.32;;;2.88;;
12048;SDS011;6085;49.452;8.502;2022-08-20T00:21:08;2.90;;;2.70;;
12048;SDS011;6085;49.452;8.502;2022-08-20T00:25:14;3.65;;;3.00;;
12048;SDS011;6085;49.452;8.502;2022-08-20T00:29:18;4.10;;;2.70;;
12048;SDS011;6085;49.452;8.502;2022-08-20T00:33:21;3.00;;;2.70;;
12048;SDS011;6085;49.452;8.502;2022-08-20T00:37:24;2.58;;;2.38;;
12048;SDS011;6085;49.452;8.502;2022-08-20T00:41:26;2.70;;;2.50;;
12048;SDS011;6085;49.452;8.502;2022-08-20T00:45:30;2.47;;;2.28;;
12048;SDS011;6085;49.452;8.502;2022-08-20T00:49:34;2.30;;;2.10;;
12048;SDS011;6085;49.452;8.502;2022-08-20T00:53:36;2.35;;;2.17;;
12048;SDS011;6085;49.452;8.502;2022-08-20T00:57:40;2.30;;;2.20;;
12048;SDS011;6085;49.452;8.502;2022-08-20T01:01:47;2.15;;;2.05;;
12048;SDS011;6085;49.452;8.502;2022-08-20T01:05:50;2.10;;;2.00;;
12048;SDS011;6085;49.452;8.502;2022-08-20T01:09:52;2.00;;;1.90;;
12048;SDS011;6085;49.452;8.502;2022-08-20T01:13:54;2.35;;;2.15;;
12048;SDS011;6085;49.452;8.502;2022-08-20T01:17:59;1.83;;;1.73;;
12048;SDS011;6085;49.452;8.502;2022-08-20T01:22:02;1.83;;;1.73;;
12048;SDS011;6085;49.452;8.502;2022-08-20T01:26:28;1.75;;;1.65;;
12048;SDS011;6085;49.452;8.502;2022-08-20T01:30:34;1.58;;;1.48;;
12048;SDS011;6085;49.452;8.502;2022-08-20T01:34:38;1.88;;;1.77;;
12048;SDS011;6085;49.452;8.502;2022-08-20T01:38:40;1.70;;;1.60;;
12048;SDS011;6085;49.452;8.502;2022-08-20T01:42:45;1.70;;;1.60;;
12048;SDS011;6085;49.452;8.502;2022-08-20T01:46:49;1.80;;;1.70;;
12048;SDS011;6085;49.452;8.502;2022-08-20T01:50:55;2.08;;;1.98;;
12048;SDS011;6085;49.452;8.502;2022-08-20T01:55:04;2.40;;;2.30;;
12048;SDS011;6085;49.452;8.502;2022-08-20T01:59:08;2.67;;;2.47;;
12048;SDS011;6085;49.452;8.502;2022-08-20T02:03:11;3.03;;;2.10;;
12048;SDS011;6085;49.452;8.502;2022-08-20T02:07:14;2.15;;;1.98;;
12048;SDS011;6085;49.452;8.502;2022-08-20T02:11:17;2.80;;;2.50;;
12048;SDS011;6085;49.452;8.502;2022-08-20T02:15:20;2.70;;;2.50;;
12048;SDS011;6085;49.452;8.502;2022-08-20T02:19:29;2.30;;;2.20;;
12048;SDS011;6085;49.452;8.502;2022-08-20T02:23:33;2.40;;;2.20;;
12048;SDS011;6085;49.452;8.502;2022-08-20T02:27:37;2.90;;;2.70;;
12048;SDS011;6085;49.452;8.502;2022-08-20T02:31:42;2.20;;;2.10;;
12048;SDS011;6085;49.452;8.502;2022-08-20T02:35:45;3.90;;;2.53;;
12048;SDS011;6085;49.452;8.502;2022-08-20T02:39:48;3.15;;;2.88;;
12048;SDS011;6085;49.452;8.502;2022-08-20T02:43:50;2.55;;;2.35;;
12048;SDS011;6085;49.452;8.502;2022-08-20T02:47:54;2.60;;;2.42;;
12048;SDS011;6085;49.452;8.502;2022-08-20T02:52:00;2.88;;;2.67;;
12048;SDS011;6085;49.452;8.502;2022-08-20T02:56:03;2.67;;;2.47;;
12048;SDS011;6085;49.452;8.502;2022-08-20T03:00:06;2.70;;;2.50;;
12048;SDS011;6085;49.452;8.502;2022-08-20T03:04:11;3.13;;;2.83;;
12048;SDS011;6085;49.452;8.502;2022-08-20T03:08:13;2.58;;;2.38;;
12048;SDS011;6085;49.452;8.502;2022-08-20T03:12:15;2.38;;;2.17;;
12048;SDS011;6085;49.452;8.502;2022-08-20T03:16:17;3.28;;;2.30;;
12048;SDS011;6085;49.452;8.502;2022-08-20T03:20:21;2.92;;;2.63;;
12048;SDS011;6085;49.452;8.502;2022-08-20T03:24:23;2.30;;;2.20;;
12048;SDS011;6085;49.452;8.502;2022-08-20T03:28:25;2.72;;;2.08;;
12048;SDS011;6085;49.452;8.502;2022-08-20T03:32:27;2.28;;;2.17;;
12048;SDS011;6085;49.452;8.502;2022-08-20T03:36:30;2.30;;;2.10;;
12048;SDS011;6085;49.452;8.502;2022-08-20T03:40:32;3.95;;;2.83;;
12048;SDS011;6085;49.452;8.502;2022-08-20T03:44:35;3.40;;;3.10;;
12048;SDS011;6085;49.452;8.502;2022-08-20T03:48:37;4.13;;;3.63;;
12048;SDS011;6085;49.452;8.502;2022-08-20T03:52:40;3.13;;;2.92;;
12048;SDS011;6085;49.452;8.502;2022-08-20T03:56:42;2.75;;;2.55;;
12048;SDS011;6085;49.452;8.502;2022-08-20T04:00:45;2.67;;;2.28;;
12048;SDS011;6085;49.452;8.502;2022-08-20T04:04:48;2.30;;;2.10;;
12048;SDS011;6085;49.452;8.502;2022-08-20T04:08:52;3.33;;;3.03;;
12048;SDS011;6085;49.452;8.502;2022-08-20T04:12:54;3.38;;;3.17;;
12048;SDS011;6085;49.452;8.502;2022-08-20T04:16:56;3.85;;;3.55;;
12048;SDS011;6085;49.452;8.502;2022-08-20T04:20:58;4.57;;;3.97;;
12048;SDS011;6085;49.452;8.502;2022-08-20T04:25:01;4.75;;;4.35;;
12048;SDS011;6085;49.452;8.502;2022-08-20T04:29:04;4.10;;;3.80;;
12048;SDS011;6085;49.452;8.502;2022-08-20T04:33:05;4.10;;;3.70;;
12048;SDS011;6085;49.452;8.502;2022-08-20T04:37:07;3.90;;;3.60;;
12048;SDS011;6085;49.452;8.502;2022-08-20T04:41:11;3.50;;;3.20;;
12048;SDS011;6085;49.452;8.502;2022-08-20T04:45:13;4.45;;;3.85;;
12048;SDS011;6085;49.452;8.502;2022-08-20T04:49:15;4.28;;;3.75;;
12048;SDS011;6085;49.452;8.502;2022-08-20T04:53:18;4.57;;;3.78;;
12048;SDS011;6085;49.452;8.502;2022-08-20T04:57:23;3.90;;;3.50;;
12048;SDS011;6085;49.452;8.502;2022-08-20T05:01:26;2.85;;;2.55;;
12048;SDS011;6085;49.452;8.502;2022-08-20T05:05:28;2.67;;;2.22;;
12048;SDS011;6085;49.452;8.502;2022-08-20T05:09:30;3.72;;;2.33;;
12048;SDS011;6085;49.452;8.502;2022-08-20T05:13:34;2.30;;;2.10;;
12048;SDS011;6085;49.452;8.502;2022-08-20T05:17:36;2.00;;;1.85;;
12048;SDS011;6085;49.452;8.502;2022-08-20T05:21:39;2.40;;;2.30;;
12048;SDS011;6085;49.452;8.502;2022-08-20T05:25:42;2.05;;;1.95;;
12048;SDS011;6085;49.452;8.502;2022-08-20T05:29:48;2.10;;;2.00;;
12048;SDS011;6085;49.452;8.502;2022-08-20T05:33:52;2.00;;;1.90;;
12048;SDS011;6085;49.452;8.502;2022-08-20T05:37:55;3.25;;;2.28;;
12048;SDS011;6085;49.452;8.502;2022-08-20T05:41:57;2.13;;;1.98;;
12048;SDS011;6085;49.452;8.502;2022-08-20T05:46:01;2.58;;;2.30;;
12048;SDS011;6085;49.452;8.502;2022-08-20T05:50:03;2.30;;;2.10;;
12048;SDS011;6085;49.452;8.502;2022-08-20T05:54:05;2.30;;;2.10;;
12048;SDS011;6085;49.452;8.502;2022-08-20T05:58:13;2.40;;;2.20;;
12048;SDS011;6085;49.452;8.502;2022-08-20T06:02:19;2.55;;;2.20;;
12048;SDS011;6085;49.452;8.502;2022-08-20T06:06:38;3.15;;;2.67;;
12048;SDS011;6085;49.452;8.502;2022-08-20T06:10:41;4.00;;;2.30;;
12048;SDS011;6085;49.452;8.502;2022-08-20T06:14:44;2.88;;;2.30;;
12048;SDS011;6085;49.452;8.502;2022-08-20T06:18:47;1.83;;;1.70;;
12048;SDS011;6085;49.452;8.502;2022-08-20T06:22:49;3.78;;;1.90;;
12048;SDS011;6085;49.452;8.502;2022-08-20T06:26:54;2.33;;;1.90;;
12048;SDS011;6085;49.452;8.502;2022-08-20T06:30:56;2.22;;;1.98;;
12048;SDS011;6085;49.452;8.502;2022-08-20T06:35:01;1.83;;;1.73;;
12048;SDS011;6085;49.452;8.502;2022-08-20T06:39:05;2.38;;;2.00;;
12048;SDS011;6085;49.452;8.502;2022-08-20T06:43:07;2.22;;;2.13;;
12048;SDS011;6085;49.452;8.502;2022-08-20T06:47:09;3.33;;;2.20;;
12048;SDS011;6085;49.452;8.502;2022-08-20T06:51:15;2.08;;;1.90;;
12048;SDS011;6085;49.452;8.502;2022-08-20T06:55:17;1.80;;;1.70;;
12048;SDS011;6085;49.452;8.502;2022-08-20T06:59:19;1.85;;;1.75;;
12048;SDS011;6085;49.452;8.502;2022-08-20T07:03:21;1.63;;;1.52;;
12048;SDS011;6085;49.452;8.502;2022-08-20T07:07:25;1.77;;;1.67;;
12048;SDS011;6085;49.452;8.502;2022-08-20T07:11:26;2.60;;;1.77;;
12048;SDS011;6085;49.452;8.502;2022-08-20T07:15:28;1.80;;;1.70;;
12048;SDS011;6085;49.452;8.502;2022-08-20T07:19:31;1.90;;;1.80;;
12048;SDS011;6085;49.452;8.502;2022-08-20T07:23:34;1.58;;;1.48;;
12048;SDS011;6085;49.452;8.502;2022-08-20T07:27:36;1.88;;;1.65;;
12048;SDS011;6085;49.452;8.502;2022-08-20T07:31:38;2.67;;;1.80;;
12048;SDS011;6085;49.452;8.502;2022-08-20T07:35:58;1.70;;;1.60;;
12048;SDS011;6085;49.452;8.502;2022-08-20T07:40:04;1.90;;;1.80;;
12048;SDS011;6085;49.452;8.502;2022-08-20T07:44:08;2.30;;;2.10;;
12048;SDS011;6085;49.452;8.502;2022-08-20T07:48:10;1.92;;;1.83;;
12048;SDS011;6085;49.452;8.502;2022-08-20T07:52:14;1.90;;;1.80;;
12048;SDS011;6085;49.452;8.502;2022-08-20T07:56:18;6.45;;;2.38;;
12048;SDS011;6085;49.452;8.502;2022-08-20T08:00:21;1.65;;;1.55;;
12048;SDS011;6085;49.452;8.502;2022-08-20T08:04:24;1.80;;;1.70;;
12048;SDS011;6085;49.452;8.502;2022-08-20T08:08:26;2.20;;;1.70;;
12048;SDS011;6085;49.452;8.502;2022-08-20T08:12:34;1.60;;;1.50;;
12048;SDS011;6085;49.452;8.502;2022-08-20T08:16:38;1.83;;;1.70;;
12048;SDS011;6085;49.452;8.502;2022-08-20T08:20:44;1.75;;;1.65;;
12048;SDS011;6085;49.452;8.502;2022-08-20T08:24:46;1.58;;;1.48;;
12048;SDS011;6085;49.452;8.502;2022-08-20T08:28:49;1.98;;;1.80;;
12048;SDS011;6085;49.452;8.502;2022-08-20T08:32:51;1.83;;;1.70;;
12048;SDS011;6085;49.452;8.502;2022-08-20T08:37:10;1.50;;;1.40;;
12048;SDS011;6085;49.452;8.502;2022-08-20T08:41:14;1.60;;;1.50;;
12048;SDS011;6085;49.452;8.502;2022-08-20T08:45:21;1.80;;;1.70;;
12048;SDS011;6085;49.452;8.502;2022-08-20T08:49:24;2.53;;;1.70;;
12048;SDS011;6085;49.452;8.502;2022-08-20T08:53:29;1.75;;;1.65;;
12048;SDS011;6085;49.452;8.502;2022-08-20T08:57:35;1.73;;;1.63;;
12048;SDS011;6085;49.452;8.502;2022-08-20T09:01:41;1.90;;;1.80;;
12048;SDS011;6085;49.452;8.502;2022-08-20T09:05:46;2.00;;;1.30;;
12048;SDS011;6085;49.452;8.502;2022-08-20T09:09:50;2.08;;;1.73;;
12048;SDS011;6085;49.452;8.502;2022-08-20T09:13:53;1.27;;;1.20;;
12048;SDS011;6085;49.452;8.502;2022-08-20T09:17:56;1.70;;;1.60;;
12048;SDS011;6085;49.452;8.502;2022-08-20T09:21:58;1.58;;;1.48;;
12048;SDS011;6085;49.452;8.502;2022-08-20T09:26:07;1.40;;;1.30;;
12048;SDS011;6085;49.452;8.502;2022-08-20T09:30:10;1.50;;;1.40;;
12048;SDS011;6085;49.452;8.502;2022-08-20T09:34:13;1.27;;;1.20;;
12048;SDS011;6085;49.452;8.502;2022-08-20T09:38:15;1.17;;;1.10;;
12048;SDS011;6085;49.452;8.502;2022-08-20T09:42:18;1.50;;;1.27;;
12048;SDS011;6085;49.452;8.502;2022-08-20T09:46:22;1.10;;;1.10;;
12048;SDS011;6085;49.452;8.502;2022-08-20T09:50:27;0.80;;;0.80;;
12048;SDS011;6085;49.452;8.502;2022-08-20T09:54:31;0.80;;;0.80;;
12048;SDS011;6085;49.452;8.502;2022-08-20T09:58:34;1.77;;;0.80;;
12048;SDS011;6085;49.452;8.502;2022-08-20T10:02:45;0.70;;;0.70;;
12048;SDS011;6085;49.452;8.502;2022-08-20T10:06:48;1.48;;;1.38;;
12048;SDS011;6085;49.452;8.502;2022-08-20T10:10:50;2.08;;;1.70;;
12048;SDS011;6085;49.452;8.502;2022-08-20T10:14:52;1.45;;;1.38;;
12048;SDS011;6085;49.452;8.502;2022-08-20T10:18:55;1.42;;;1.30;;
12048;SDS011;6085;49.452;8.502;2022-08-20T10:22:58;1.48;;;1.42;;
12048;SDS011;6085;49.452;8.502;2022-08-20T10:27:00;1.85;;;1.75;;
12048;SDS011;6085;49.452;8.502;2022-08-20T10:31:04;1.73;;;1.63;;
12048;SDS011;6085;49.452;8.502;2022-08-20T10:35:06;1.92;;;1.70;;
12048;SDS011;6085;49.452;8.502;2022-08-20T10:39:10;4.68;;;2.10;;
12048;SDS011;6085;49.452;8.502;2022-08-20T10:43:12;4.15;;;2.85;;
12048;SDS011;6085;49.452;8.502;2022-08-20T10:47:15;2.75;;;2.55;;
12048;SDS011;6085;49.452;8.502;2022-08-20T10:51:20;2.25;;;2.03;;
12048;SDS011;6085;49.452;8.502;2022-08-20T10:55:23;1.90;;;1.80;;
12048;SDS011;6085;49.452;8.502;2022-08-20T10:59:25;1.83;;;1.70;;
12048;SDS011;6085;49.452;8.502;2022-08-20T11:03:27;2.03;;;1.73;;
12048;SDS011;6085;49.452;8.502;2022-08-20T11:07:31;2.05;;;1.70;;
12048;SDS011;6085;49.452;8.502;2022-08-20T11:11:36;1.70;;;1.60;;
12048;SDS011;6085;49.452;8.502;2022-08-20T11:15:39;1.60;;;1.50;;
12048;SDS011;6085;49.452;8.502;2022-08-20T11:19:43;1.33;;;1.30;;
12048;SDS011;6085;49.452;8.502;2022-08-20T11:23:45;1.25;;;1.20;;
12048;SDS011;6085;49.452;8.502;2022-08-20T11:27:49;1.25;;;1.15;;
12048;SDS011;6085;49.452;8.502;2022-08-20T11:31:52;0.40;;;0.40;;
12048;SDS011;6085;49.452;8.502;2022-08-20T11:35:54;0.40;;;0.40;;
12048;SDS011;6085;49.452;8.502;2022-08-20T11:39:56;0.85;;;0.30;;
12048;SDS011;6085;49.452;8.502;2022-08-20T11:43:59;0.40;;;0.40;;
12048;SDS011;6085;49.452;8.502;2022-08-20T11:48:01;0.30;;;0.30;;
12048;SDS011;6085;49.452;8.502;2022-08-20T11:52:04;0.50;;;0.50;;
12048;SDS011;6085;49.452;8.502;2022-08-20T11:56:06;0.28;;;0.28;;
12048;SDS011;6085;49.452;8.502;2022-08-20T12:00:12;1.10;;;0.75;;
12048;SDS011;6085;49.452;8.502;2022-08-20T12:04:16;2.28;;;0.40;;
12048;SDS011;6085;49.452;8.502;2022-08-20T12:08:18;0.30;;;0.30;;
12048;SDS011;6085;49.452;8.502;2022-08-20T12:12:20;0.40;;;0.40;;
12048;SDS011;6085;49.452;8.502;2022-08-20T12:16:25;0.50;;;0.50;;
12048;SDS011;6085;49.452;8.502;2022-08-20T12:20:27;0.70;;;0.70;;
12048;SDS011;6085;49.452;8.502;2022-08-20T12:24:28;1.20;;;0.45;;
12048;SDS011;6085;49.452;8.502;2022-08-20T12:28:30;0.40;;;0.40;;
12048;SDS011;6085;49.452;8.502;2022-08-20T12:32:36;0.32;;;0.32;;
12048;SDS011;6085;49.452;8.502;2022-08-20T12:36:38;1.75;;;0.50;;
12048;SDS011;6085;49.452;8.502;2022-08-20T12:40:40;0.52;;;0.40;;
12048;SDS011;6085;49.452;8.502;2022-08-20T12:44:42;0.30;;;0.30;;
12048;SDS011;6085;49.452;8.502;2022-08-20T12:48:46;0.40;;;0.40;;
12048;SDS011;6085;49.452;8.502;2022-08-20T12:52:48;2.17;;;0.50;;
12048;SDS011;6085;49.452;8.502;2022-08-20T12:56:50;0.30;;;0.30;;
12048;SDS011;6085;49.452;8.502;2022-08-20T13:00:52;0.30;;;0.30;;
12048;SDS011;6085;49.452;8.502;2022-08-20T13:04:55;0.50;;;0.50;;
12048;SDS011;6085;49.452;8.502;2022-08-20T13:08:57;0.52;;;0.52;;
12048;SDS011;6085;49.452;8.502;2022-08-20T13:12:59;0.82;;;0.82;;
12048;SDS011;6085;49.452;8.502;2022-08-20T13:17:02;0.80;;;0.80;;
12048;SDS011;6085;49.452;8.502;2022-08-20T13:21:06;0.85;;;0.85;;
12048;SDS011;6085;49.452;8.502;2022-08-20T13:25:08;0.70;;;0.70;;
12048;SDS011;6085;49.452;8.502;2022-08-20T13:29:11;0.95;;;0.85;;
12048;SDS011;6085;49.452;8.502;2022-08-20T13:33:14;1.00;;;0.63;;
12048;SDS011;6085;49.452;8.502;2022-08-20T13:37:18;0.93;;;0.65;;
12048;SDS011;6085;49.452;8.502;2022-08-20T13:41:21;0.60;;;0.60;;
12048;SDS011;6085;49.452;8.502;2022-08-20T13:45:23;0.82;;;0.80;;
12048;SDS011;6085;49.452;8.502;2022-08-20T13:49:25;0.70;;;0.70;;
12048;SDS011;6085;49.452;8.502;2022-08-20T13:53:28;1.17;;;1.08;;
12048;SDS011;6085;49.452;8.502;2022-08-20T13:57:30;3.55;;;1.50;;
12048;SDS011;6085;49.452;8.502;2022-08-20T14:01:32;2.17;;;1.60;;
12048;SDS011;6085;49.452;8.502;2022-08-20T14:05:34;1.60;;;1.50;;
12048;SDS011;6085;49.452;8.502;2022-08-20T14:09:38;1.83;;;1.73;;
12048;SDS011;6085;49.452;8.502;2022-08-20T14:13:41;1.73;;;1.63;;
12048;SDS011;6085;49.452;8.502;2022-08-20T14:17:49;2.35;;;1.65;;
12048;SDS011;6085;49.452;8.502;2022-08-20T14:21:51;1.88;;;1.77;;
12048;SDS011;6085;49.452;8.502;2022-08-20T14:25:55;2.90;;;1.70;;
12048;SDS011;6085;49.452;8.502;2022-08-20T14:29:57;1.48;;;1.38;;
12048;SDS011;6085;49.452;8.502;2022-08-20T14:33:59;2.60;;;1.40;;
12048;SDS011;6085;49.452;8.502;2022-08-20T14:38:01;1.70;;;1.60;;
12048;SDS011;6085;49.452;8.502;2022-08-20T14:42:05;1.70;;;1.60;;
12048;SDS011;6085;49.452;8.502;2022-08-20T14:46:07;1.63;;;1.52;;
12048;SDS011;6085;49.452;8.502;2022-08-20T14:50:10;2.08;;;1.67;;
12048;SDS011;6085;49.452;8.502;2022-08-20T14:54:14;1.75;;;1.60;;
12048;SDS011;6085;49.452;8.502;2022-08-20T14:58:17;1.77;;;1.50;;
12048;SDS011;6085;49.452;8.502;2022-08-20T15:02:19;2.40;;;1.70;;
12048;SDS011;6085;49.452;8.502;2022-08-20T15:06:22;1.60;;;1.50;;
12048;SDS011;6085;49.452;8.502;2022-08-20T15:10:24;2.05;;;1.55;;
12048;SDS011;6085;49.452;8.502;2022-08-20T15:14:29;1.25;;;1.10;;
12048;SDS011;6085;49.452;8.502;2022-08-20T15:18:31;2.35;;;1.10;;
12048;SDS011;6085;49.452;8.502;2022-08-20T15:22:33;1.85;;;1.20;;
12048;SDS011;6085;49.452;8.502;2022-08-20T15:26:35;2.03;;;1.20;;
12048;SDS011;6085;49.452;8.502;2022-08-20T15:30:39;1.00;;;0.93;;
12048;SDS011;6085;49.452;8.502;2022-08-20T15:34:42;3.47;;;1.38;;
12048;SDS011;6085;49.452;8.502;2022-08-20T15:38:44;1.27;;;1.10;;
12048;SDS011;6085;49.452;8.502;2022-08-20T15:42:46;1.35;;;1.00;;
12048;SDS011;6085;49.452;8.502;2022-08-20T15:46:49;0.88;;;0.88;;
12048;SDS011;6085;49.452;8.502;2022-08-20T15:51:01;1.00;;;0.98;;
12048;SDS011;6085;49.452;8.502;2022-08-20T15:55:13;1.20;;;1.08;;
12048;SDS011;6085;49.452;8.502;2022-08-20T15:59:22;1.63;;;1.00;;
12048;SDS011;6085;49.452;8.502;2022-08-20T16:03:43;0.90;;;0.90;;
12048;SDS011;6085;49.452;8.502;2022-08-20T16:08:03;0.95;;;0.90;;
12048;SDS011;6085;49.452;8.502;2022-08-20T16:12:15;1.77;;;0.80;;
12048;SDS011;6085;49.452;8.502;2022-08-20T16:16:25;1.23;;;1.00;;
12048;SDS011;6085;49.452;8.502;2022-08-20T16:20:34;1.00;;;0.90;;
12048;SDS011;6085;49.452;8.502;2022-08-20T16:24:40;1.50;;;1.35;;
12048;SDS011;6085;49.452;8.502;2022-08-20T16:28:45;1.42;;;1.33;;
12048;SDS011;6085;49.452;8.502;2022-08-20T16:32:58;1.15;;;1.00;;
12048;SDS011;6085;49.452;8.502;2022-08-20T16:37:09;1.80;;;1.20;;
12048;SDS011;6085;49.452;8.502;2022-08-20T16:41:23;1.08;;;0.95;;
12048;SDS011;6085;49.452;8.502;2022-08-20T16:45:29;3.08;;;1.25;;
12048;SDS011;6085;49.452;8.502;2022-08-20T16:49:35;1.65;;;1.33;;
12048;SDS011;6085;49.452;8.502;2022-08-20T16:53:41;1.42;;;1.20;;
12048;SDS011;6085;49.452;8.502;2022-08-20T16:57:43;1.65;;;1.55;;
12048;SDS011;6085;49.452;8.502;2022-08-20T17:01:48;1.58;;;1.45;;
12048;SDS011;6085;49.452;8.502;2022-08-20T17:06:07;2.75;;;1.40;;
12048;SDS011;6085;49.452;8.502;2022-08-20T17:10:19;1.40;;;1.40;;
12048;SDS011;6085;49.452;8.502;2022-08-20T17:14:23;1.90;;;1.52;;
12048;SDS011;6085;49.452;8.502;2022-08-20T17:18:26;1.60;;;1.50;;
12048;SDS011;6085;49.452;8.502;2022-08-20T17:22:30;2.00;;;1.80;;
12048;SDS011;6085;49.452;8.502;2022-08-20T17:26:47;1.50;;;1.40;;
12048;SDS011;6085;49.452;8.502;2022-08-20T17:30:50;1.48;;;1.38;;
12048;SDS011;6085;49.452;8.502;2022-08-20T17:34:53;2.15;;;1.55;;
12048;SDS011;6085;49.452;8.502;2022-08-20T17:38:58;1.70;;;1.55;;
12048;SDS011;6085;49.452;8.502;2022-08-20T17:43:02;2.60;;;1.90;;
12048;SDS011;6085;49.452;8.502;2022-08-20T17:47:09;2.78;;;1.60;;
12048;SDS011;6085;49.452;8.502;2022-08-20T17:51:16;1.75;;;1.65;;
12048;SDS011;6085;49.452;8.502;2022-08-20T17:55:19;1.73;;;1.63;;
12048;SDS011;6085;49.452;8.502;2022-08-20T17:59:25;1.60;;;1.50;;
12048;SDS011;6085;49.452;8.502;2022-08-20T18:03:31;1.80;;;1.70;;
12048;SDS011;6085;49.452;8.502;2022-08-20T18:07:34;1.65;;;1.55;;
12048;SDS011;6085;49.452;8.502;2022-08-20T18:11:42;1.88;;;1.77;;
12048;SDS011;6085;49.452;8.502;2022-08-20T18:15:54;1.90;;;1.80;;
12048;SDS011;6085;49.452;8.502;2022-08-20T18:20:08;1.60;;;1.50;;
12048;SDS011;6085;49.452;8.502;2022-08-20T18:24:20;2.92;;;2.13;;
12048;SDS011;6085;49.452;8.502;2022-08-20T18:28:28;2.22;;;2.03;;
12048;SDS011;6085;49.452;8.502;2022-08-20T18:32:35;1.73;;;1.55;;
12048;SDS011;6085;49.452;8.502;2022-08-20T18:36:39;1.38;;;1.38;;
12048;SDS011;6085;49.452;8.502;2022-08-20T18:40:41;1.58;;;1.48;;
12048;SDS011;6085;49.452;8.502;2022-08-20T18:44:44;1.75;;;1.65;;
12048;SDS011;6085;49.452;8.502;2022-08-20T18:48:53;3.28;;;1.70;;
12048;SDS011;6085;49.452;8.502;2022-08-20T18:53:06;1.63;;;1.52;;
12048;SDS011;6085;49.452;8.502;2022-08-20T18:57:16;2.05;;;1.95;;
12048;SDS011;6085;49.452;8.502;2022-08-20T19:01:20;1.75;;;1.65;;
12048;SDS011;6085;49.452;8.502;2022-08-20T19:05:27;1.88;;;1.77;;
12048;SDS011;6085;49.452;8.502;2022-08-20T19:09:44;2.10;;;1.90;;
12048;SDS011;6085;49.452;8.502;2022-08-20T19:14:07;2.58;;;2.00;;
12048;SDS011;6085;49.452;8.502;2022-08-20T19:18:29;2.10;;;1.92;;
12048;SDS011;6085;49.452;8.502;2022-08-20T19:22:37;2.10;;;1.90;;
12048;SDS011;6085;49.452;8.502;2022-08-20T19:26:43;2.80;;;2.15;;
12048;SDS011;6085;49.452;8.502;2022-08-20T19:30:49;1.83;;;1.73;;
12048;SDS011;6085;49.452;8.502;2022-08-20T19:34:52;2.13;;;1.95;;
12048;SDS011;6085;49.452;8.502;2022-08-20T19:38:58;2.50;;;1.95;;
12048;SDS011;6085;49.452;8.502;2022-08-20T19:43:02;2.38;;;2.17;;
12048;SDS011;6085;49.452;8.502;2022-08-20T19:47:09;2.13;;;1.88;;
12048;SDS011;6085;49.452;8.502;2022-08-20T19:51:17;2.33;;;1.90;;
12048;SDS011;6085;49.452;8.502;2022-08-20T19:55:28;2.15;;;1.85;;
12048;SDS011;6085;49.452;8.502;2022-08-20T19:59:33;3.17;;;2.00;;
12048;SDS011;6085;49.452;8.502;2022-08-20T20:03:36;2.17;;;1.90;;
12048;SDS011;6085;49.452;8.502;2022-08-20T20:07:39;4.25;;;2.13;;
12048;SDS011;6085;49.452;8.502;2022-08-20T20:11:46;3.25;;;2.40;;
12048;SDS011;6085;49.452;8.502;2022-08-20T20:15:53;2.80;;;2.35;;
12048;SDS011;6085;49.452;8.502;2022-08-20T20:20:16;2.08;;;1.88;;
12048;SDS011;6085;49.452;8.502;2022-08-20T20:24:22;2.20;;;2.00;;
12048;SDS011;6085;49.452;8.502;2022-08-20T20:28:27;2.40;;;2.20;;
12048;SDS011;6085;49.452;8.502;2022-08-20T20:32:30;2.28;;;2.08;;
12048;SDS011;6085;49.452;8.502;2022-08-20T20:36:34;2.13;;;1.92;;
12048;SDS011;6085;49.452;8.502;2022-08-20T20:40:43;1.98;;;1.73;;
12048;SDS011;6085;49.452;8.502;2022-08-20T20:44:49;3.50;;;2.00;;
12048;SDS011;6085;49.452;8.502;2022-08-20T20:48:52;2.72;;;2.00;;
12048;SDS011;6085;49.452;8.502;2022-08-20T20:52:57;3.08;;;2.10;;
12048;SDS011;6085;49.452;8.502;2022-08-20T20:57:00;2.17;;;1.80;;
12048;SDS011;6085;49.452;8.502;2022-08-20T21:01:06;5.15;;;2.53;;
12048;SDS011;6085;49.452;8.502;2022-08-20T21:05:08;3.65;;;2.63;;
12048;SDS011;6085;49.452;8.502;2022-08-20T21:09:11;2.63;;;2.28;;
12048;SDS011;6085;49.452;8.502;2022-08-20T21:13:14;4.53;;;2.63;;
12048;SDS011;6085;49.452;8.502;2022-08-20T21:17:20;4.15;;;2.35;;
12048;SDS011;6085;49.452;8.502;2022-08-20T21:21:22;4.43;;;2.50;;
12048;SDS011;6085;49.452;8.502;2022-08-20T21:25:24;2.75;;;2.40;;
12048;SDS011;6085;49.452;8.502;2022-08-20T21:29:28;3.30;;;2.65;;
12048;SDS011;6085;49.452;8.502;2022-08-20T21:33:33;3.17;;;2.75;;
12048;SDS011;6085;49.452;8.502;2022-08-20T21:37:35;4.45;;;2.50;;
12048;SDS011;6085;49.452;8.502;2022-08-20T21:41:37;3.45;;;2.67;;
12048;SDS011;6085;49.452;8.502;2022-08-20T21:45:40;2.53;;;2.33;;
12048;SDS011;6085;49.452;8.502;2022-08-20T21:49:43;3.47;;;2.45;;
12048;SDS011;6085;49.452;8.502;2022-08-20T21:53:45;3.13;;;2.83;;
12048;SDS011;6085;49.452;8.502;2022-08-20T21:57:47;4.20;;;2.88;;
12048;SDS011;6085;49.452;8.502;2022-08-20T22:01:49;2.97;;;2.40;;
12048;SDS011;6085;49.452;8.502;2022-08-20T22:05:53;3.00;;;2.60;;
12048;SDS011;6085;49.452;8.502;2022-08-20T22:09:56;2.97;;;2.58;;
12048;SDS011;6085;49.452;8.502;2022-08-20T22:13:58;2.60;;;2.40;;
12048;SDS011;6085;49.452;8.502;2022-08-20T22:18:01;5.47;;;2.83;;
12048;SDS011;6085;49.452;8.502;2022-08-20T22:22:05;2.75;;;2.40;;
12048;SDS011;6085;49.452;8.502;2022-08-20T22:26:09;3.58;;;2.60;;
12048;SDS011;6085;49.452;8.502;2022-08-20T22:30:11;4.20;;;2.47;;
12048;SDS011;6085;49.452;8.502;2022-08-20T22:34:14;2.55;;;2.35;;
12048;SDS011;6085;49.452;8.502;2022-08-20T22:38:20;3.22;;;2.63;;
12048;SDS011;6085;49.452;8.502;2022-08-20T22:42:22;2.78;;;2.58;;
12048;SDS011;6085;49.452;8.502;2022-08-20T22:46:25;3.00;;;2.70;;
12048;SDS011;6085;49.452;8.502;2022-08-20T22:50:30;3.75;;;2.78;;
12048;SDS011;6085;49.452;8.502;2022-08-20T22:54:33;3.47;;;3.05;;
12048;SDS011;6085;49.452;8.502;2022-08-20T22:58:36;5.97;;;3.10;;
12048;SDS011;6085;49.452;8.502;2022-08-20T23:02:38;3.05;;;2.75;;
12048;SDS011;6085;49.452;8.502;2022-08-20T23:06:41;3.22;;;2.75;;
12048;SDS011;6085;49.452;8.502;2022-08-20T23:10:45;2.78;;;2.50;;
12048;SDS011;6085;49.452;8.502;2022-08-20T23:14:46;2.50;;;2.30;;
12048;SDS011;6085;49.452;8.502;2022-08-20T23:18:48;3.45;;;2.40;;
12048;SDS011;6085;49.452;8.502;2022-08-20T23:22:50;2.78;;;2.55;;
12048;SDS011;6085;49.452;8.502;2022-08-20T23:26:54;3.65;;;2.45;;
12048;SDS011;6085;49.452;8.502;2022-08-20T23:30:56;4.38;;;2.78;;
12048;SDS011;6085;49.452;8.502;2022-08-20T23:34:58;2.85;;;2.53;;
12048;SDS011;6085;49.452;8.502;2022-08-20T23:39:00;6.95;;;2.97;;
12048;SDS011;6085;49.452;8.502;2022-08-20T23:43:03;3.20;;;2.90;;
12048;SDS011;6085;49.452;8.502;2022-08-20T23:47:06;3.00;;;2.78;;
12048;SDS011;6085;49.452;8.502;2022-08-20T23:51:08;3.55;;;2.85;;
12048;SDS011;6085;49.452;8.502;2022-08-20T23:55:11;3.20;;;2.60;;
12048;SDS011;6085;49.452;8.502;2022-08-20T23:59:14;3.15;;;2.88;;
